sensor_id;sensor_type;location;lat;lon;timestamp;temperature;humidity
24800;DHT22;12897;50.812;4.430;2022-12-18T00:00:08;-2.40;99.90
24800;DHT22;12897;50.812;4.430;2022-12-18T00:02:36;-2.40;99.90
24800;DHT22;12897;50.812;4.430;2022-12-18T00:05:04;-2.40;99.90
24800;DHT22;12897;50.812;4.430;2022-12-18T00:07:34;-2.60;99.90
24800;DHT22;12897;50.812;4.430;2022-12-18T00:10:04;-2.80;99.90
24800;DHT22;12897;50.812;4.430;2022-12-18T00:12:33;-2.80;99.90
24800;DHT22;12897;50.812;4.430;2022-12-18T00:15:01;-2.90;99.90
24800;DHT22;12897;50.812;4.430;2022-12-18T00:17:30;-2.70;99.90
24800;DHT22;12897;50.812;4.430;2022-12-18T00:19:58;-2.70;99.90
24800;DHT22;12897;50.812;4.430;2022-12-18T00:22:25;-2.80;99.90
24800;DHT22;12897;50.812;4.430;2022-12-18T00:24:54;-2.90;99.90
24800;DHT22;12897;50.812;4.430;2022-12-18T00:27:21;-2.90;99.90
24800;DHT22;12897;50.812;4.430;2022-12-18T00:29:51;-2.60;99.90
24800;DHT22;12897;50.812;4.430;2022-12-18T00:32:20;-2.70;99.90
24800;DHT22;12897;50.812;4.430;2022-12-18T00:34:48;-2.80;99.90
24800;DHT22;12897;50.812;4.430;2022-12-18T00:37:15;-2.90;99.90
24800;DHT22;12897;50.812;4.430;2022-12-18T00:39:44;-3.10;99.90
24800;DHT22;12897;50.812;4.430;2022-12-18T00:42:16;-3.10;99.90
24800;DHT22;12897;50.812;4.430;2022-12-18T00:45:04;-2.90;99.90
24800;DHT22;12897;50.812;4.430;2022-12-18T00:47:34;-3.00;99.90
24800;DHT22;12897;50.812;4.430;2022-12-18T00:50:03;-3.10;99.90
24800;DHT22;12897;50.812;4.430;2022-12-18T00:52:32;-3.10;99.90
24800;DHT22;12897;50.812;4.430;2022-12-18T00:55:00;-3.20;99.90
24800;DHT22;12897;50.812;4.430;2022-12-18T00:57:27;-3.30;99.90
24800;DHT22;12897;50.812;4.430;2022-12-18T00:59:55;-3.30;99.90
24800;DHT22;12897;50.812;4.430;2022-12-18T01:02:24;-3.20;99.90
24800;DHT22;12897;50.812;4.430;2022-12-18T01:04:52;-3.20;99.90
24800;DHT22;12897;50.812;4.430;2022-12-18T01:07:20;-3.10;99.90
24800;DHT22;12897;50.812;4.430;2022-12-18T01:09:48;-3.10;99.90
24800;DHT22;12897;50.812;4.430;2022-12-18T01:12:16;-3.00;99.90
24800;DHT22;12897;50.812;4.430;2022-12-18T01:14:45;-3.10;99.90
24800;DHT22;12897;50.812;4.430;2022-12-18T01:17:16;-3.10;99.90
24800;DHT22;12897;50.812;4.430;2022-12-18T01:19:43;-3.20;99.90
24800;DHT22;12897;50.812;4.430;2022-12-18T01:22:11;-3.20;99.90
24800;DHT22;12897;50.812;4.430;2022-12-18T01:24:39;-3.20;99.90
24800;DHT22;12897;50.812;4.430;2022-12-18T01:27:06;-3.20;99.90
24800;DHT22;12897;50.812;4.430;2022-12-18T01:29:34;-3.10;99.90
24800;DHT22;12897;50.812;4.430;2022-12-18T01:32:02;-3.10;99.90
24800;DHT22;12897;50.812;4.430;2022-12-18T01:34:29;-3.20;99.90
24800;DHT22;12897;50.812;4.430;2022-12-18T01:36:57;-3.10;99.90
24800;DHT22;12897;50.812;4.430;2022-12-18T01:39:25;-3.00;99.90
24800;DHT22;12897;50.812;4.430;2022-12-18T01:41:52;-3.10;99.90
24800;DHT22;12897;50.812;4.430;2022-12-18T01:47:47;-3.20;99.90
24800;DHT22;12897;50.812;4.430;2022-12-18T01:50:21;-3.30;99.90
24800;DHT22;12897;50.812;4.430;2022-12-18T01:53:04;-3.30;99.90
24800;DHT22;12897;50.812;4.430;2022-12-18T01:55:37;-3.10;99.90
24800;DHT22;12897;50.812;4.430;2022-12-18T01:58:06;-3.20;99.90
24800;DHT22;12897;50.812;4.430;2022-12-18T02:00:38;-3.30;99.90
24800;DHT22;12897;50.812;4.430;2022-12-18T02:03:07;-3.40;99.90
24800;DHT22;12897;50.812;4.430;2022-12-18T02:05:47;-3.40;99.90
24800;DHT22;12897;50.812;4.430;2022-12-18T02:14:15;-3.30;99.90
24800;DHT22;12897;50.812;4.430;2022-12-18T02:16:59;-3.20;99.90
24800;DHT22;12897;50.812;4.430;2022-12-18T02:22:24;-3.20;99.90
24800;DHT22;12897;50.812;4.430;2022-12-18T02:28:04;-3.30;99.90
24800;DHT22;12897;50.812;4.430;2022-12-18T02:30:47;-3.50;99.90
24800;DHT22;12897;50.812;4.430;2022-12-18T02:33:19;-3.50;99.90
24800;DHT22;12897;50.812;4.430;2022-12-18T02:35:54;-3.50;99.90
24800;DHT22;12897;50.812;4.430;2022-12-18T02:38:34;-3.50;99.90
24800;DHT22;12897;50.812;4.430;2022-12-18T02:41:13;-3.50;99.90
24800;DHT22;12897;50.812;4.430;2022-12-18T02:43:53;-3.60;99.90
24800;DHT22;12897;50.812;4.430;2022-12-18T02:46:28;-3.70;99.90
24800;DHT22;12897;50.812;4.430;2022-12-18T02:49:21;-3.60;99.90
24800;DHT22;12897;50.812;4.430;2022-12-18T02:52:01;-3.70;99.90
24800;DHT22;12897;50.812;4.430;2022-12-18T02:54:31;-3.70;99.90
24800;DHT22;12897;50.812;4.430;2022-12-18T02:57:02;-3.80;99.90
24800;DHT22;12897;50.812;4.430;2022-12-18T02:59:45;-3.60;99.90
24800;DHT22;12897;50.812;4.430;2022-12-18T03:05:47;-3.60;99.90
24800;DHT22;12897;50.812;4.430;2022-12-18T03:07:38;-3.70;99.90
24800;DHT22;12897;50.812;4.430;2022-12-18T03:10:09;-3.80;99.90
24800;DHT22;12897;50.812;4.430;2022-12-18T03:12:40;-3.90;99.90
24800;DHT22;12897;50.812;4.430;2022-12-18T03:15:34;-3.90;99.90
24800;DHT22;12897;50.812;4.430;2022-12-18T03:18:12;-3.90;99.90
24800;DHT22;12897;50.812;4.430;2022-12-18T03:20:39;-4.10;99.90
24800;DHT22;12897;50.812;4.430;2022-12-18T03:23:13;-4.20;99.90
24800;DHT22;12897;50.812;4.430;2022-12-18T03:25:54;-4.10;99.90
24800;DHT22;12897;50.812;4.430;2022-12-18T03:28:27;-4.20;99.90
24800;DHT22;12897;50.812;4.430;2022-12-18T03:31:05;-4.10;99.90
24800;DHT22;12897;50.812;4.430;2022-12-18T03:33:59;-4.20;99.90
24800;DHT22;12897;50.812;4.430;2022-12-18T03:36:24;-4.20;99.90
24800;DHT22;12897;50.812;4.430;2022-12-18T03:38:57;-4.10;99.90
24800;DHT22;12897;50.812;4.430;2022-12-18T03:41:47;-4.00;99.90
24800;DHT22;12897;50.812;4.430;2022-12-18T03:44:20;-4.10;99.90
24800;DHT22;12897;50.812;4.430;2022-12-18T03:47:08;-3.90;99.90
24800;DHT22;12897;50.812;4.430;2022-12-18T03:49:46;-3.80;99.90
24800;DHT22;12897;50.812;4.430;2022-12-18T03:52:20;-3.90;99.90
24800;DHT22;12897;50.812;4.430;2022-12-18T03:54:48;-3.90;99.90
24800;DHT22;12897;50.812;4.430;2022-12-18T03:57:22;-4.00;99.90
24800;DHT22;12897;50.812;4.430;2022-12-18T04:00:06;-4.30;99.90
24800;DHT22;12897;50.812;4.430;2022-12-18T04:02:38;-4.30;99.90
24800;DHT22;12897;50.812;4.430;2022-12-18T04:05:08;-4.30;99.90
24800;DHT22;12897;50.812;4.430;2022-12-18T04:07:51;-4.30;99.90
24800;DHT22;12897;50.812;4.430;2022-12-18T04:10:20;-4.30;99.90
24800;DHT22;12897;50.812;4.430;2022-12-18T04:12:48;-4.40;99.90
24800;DHT22;12897;50.812;4.430;2022-12-18T04:15:16;-4.40;99.90
24800;DHT22;12897;50.812;4.430;2022-12-18T04:17:48;-4.40;99.90
24800;DHT22;12897;50.812;4.430;2022-12-18T04:20:16;-4.40;99.90
24800;DHT22;12897;50.812;4.430;2022-12-18T04:22:44;-4.20;99.90
24800;DHT22;12897;50.812;4.430;2022-12-18T04:25:12;-4.00;99.90
24800;DHT22;12897;50.812;4.430;2022-12-18T04:27:39;-4.00;99.90
24800;DHT22;12897;50.812;4.430;2022-12-18T04:30:07;-4.20;99.90
24800;DHT22;12897;50.812;4.430;2022-12-18T04:32:36;-4.10;99.90
24800;DHT22;12897;50.812;4.430;2022-12-18T04:35:04;-4.10;99.90
24800;DHT22;12897;50.812;4.430;2022-12-18T04:37:33;-4.20;99.90
24800;DHT22;12897;50.812;4.430;2022-12-18T04:40:00;-4.30;99.90
24800;DHT22;12897;50.812;4.430;2022-12-18T04:42:28;-4.30;99.90
24800;DHT22;12897;50.812;4.430;2022-12-18T04:44:56;-4.20;99.90
24800;DHT22;12897;50.812;4.430;2022-12-18T04:47:23;-4.10;99.90
24800;DHT22;12897;50.812;4.430;2022-12-18T04:49:51;-4.10;99.90
24800;DHT22;12897;50.812;4.430;2022-12-18T04:52:27;-4.10;99.90
24800;DHT22;12897;50.812;4.430;2022-12-18T04:55:05;-4.20;99.90
24800;DHT22;12897;50.812;4.430;2022-12-18T04:57:42;-4.30;99.90
24800;DHT22;12897;50.812;4.430;2022-12-18T05:00:13;-4.40;99.90
24800;DHT22;12897;50.812;4.430;2022-12-18T05:02:41;-4.30;99.90
24800;DHT22;12897;50.812;4.430;2022-12-18T05:05:09;-4.30;99.90
24800;DHT22;12897;50.812;4.430;2022-12-18T05:07:40;-4.40;99.90
24800;DHT22;12897;50.812;4.430;2022-12-18T05:10:07;-4.40;99.90
24800;DHT22;12897;50.812;4.430;2022-12-18T05:12:36;-4.50;99.90
24800;DHT22;12897;50.812;4.430;2022-12-18T05:15:07;-4.60;99.90
24800;DHT22;12897;50.812;4.430;2022-12-18T05:17:41;-4.70;99.90
24800;DHT22;12897;50.812;4.430;2022-12-18T05:20:32;-4.50;99.90
24800;DHT22;12897;50.812;4.430;2022-12-18T05:23:02;-4.40;99.90
24800;DHT22;12897;50.812;4.430;2022-12-18T05:25:41;-4.20;99.90
24800;DHT22;12897;50.812;4.430;2022-12-18T05:28:07;-4.20;99.90
24800;DHT22;12897;50.812;4.430;2022-12-18T05:30:35;-4.20;99.90
24800;DHT22;12897;50.812;4.430;2022-12-18T05:33:02;-4.30;99.90
24800;DHT22;12897;50.812;4.430;2022-12-18T05:35:30;-4.50;99.90
24800;DHT22;12897;50.812;4.430;2022-12-18T05:37:57;-4.60;99.90
24800;DHT22;12897;50.812;4.430;2022-12-18T05:40:25;-4.60;99.90
24800;DHT22;12897;50.812;4.430;2022-12-18T05:42:56;-4.60;99.90
24800;DHT22;12897;50.812;4.430;2022-12-18T05:45:25;-4.50;99.90
24800;DHT22;12897;50.812;4.430;2022-12-18T05:47:53;-4.50;99.90
24800;DHT22;12897;50.812;4.430;2022-12-18T05:50:22;-4.60;99.90
24800;DHT22;12897;50.812;4.430;2022-12-18T05:52:51;-4.60;99.90
24800;DHT22;12897;50.812;4.430;2022-12-18T05:55:25;-4.60;99.90
24800;DHT22;12897;50.812;4.430;2022-12-18T05:57:53;-4.60;99.90
24800;DHT22;12897;50.812;4.430;2022-12-18T06:00:20;-4.50;99.90
24800;DHT22;12897;50.812;4.430;2022-12-18T06:02:50;-4.30;99.90
24800;DHT22;12897;50.812;4.430;2022-12-18T06:05:17;-4.20;99.90
24800;DHT22;12897;50.812;4.430;2022-12-18T06:07:45;-4.20;99.90
24800;DHT22;12897;50.812;4.430;2022-12-18T06:10:13;-4.30;99.90
24800;DHT22;12897;50.812;4.430;2022-12-18T06:12:40;-4.40;99.90
24800;DHT22;12897;50.812;4.430;2022-12-18T06:15:10;-4.40;99.90
24800;DHT22;12897;50.812;4.430;2022-12-18T06:17:38;-4.40;99.90
24800;DHT22;12897;50.812;4.430;2022-12-18T06:20:06;-4.30;99.90
24800;DHT22;12897;50.812;4.430;2022-12-18T06:22:34;-4.00;99.90
24800;DHT22;12897;50.812;4.430;2022-12-18T06:25:02;-4.00;99.90
24800;DHT22;12897;50.812;4.430;2022-12-18T06:27:29;-4.00;99.90
24800;DHT22;12897;50.812;4.430;2022-12-18T06:29:59;-4.10;99.90
24800;DHT22;12897;50.812;4.430;2022-12-18T06:32:27;-4.10;99.90
24800;DHT22;12897;50.812;4.430;2022-12-18T06:34:55;-4.10;99.90
24800;DHT22;12897;50.812;4.430;2022-12-18T06:37:25;-4.10;99.90
24800;DHT22;12897;50.812;4.430;2022-12-18T06:39:53;-4.10;99.90
24800;DHT22;12897;50.812;4.430;2022-12-18T06:42:24;-4.10;99.90
24800;DHT22;12897;50.812;4.430;2022-12-18T06:44:52;-4.00;99.90
24800;DHT22;12897;50.812;4.430;2022-12-18T06:47:20;-3.90;99.90
24800;DHT22;12897;50.812;4.430;2022-12-18T06:49:47;-3.90;99.90
24800;DHT22;12897;50.812;4.430;2022-12-18T06:52:18;-3.90;99.90
24800;DHT22;12897;50.812;4.430;2022-12-18T06:54:46;-3.90;99.90
24800;DHT22;12897;50.812;4.430;2022-12-18T06:57:16;-3.90;99.90
24800;DHT22;12897;50.812;4.430;2022-12-18T06:59:44;-3.80;99.90
24800;DHT22;12897;50.812;4.430;2022-12-18T07:02:12;-3.70;99.90
24800;DHT22;12897;50.812;4.430;2022-12-18T07:04:41;-3.80;99.90
24800;DHT22;12897;50.812;4.430;2022-12-18T07:07:09;-3.90;99.90
24800;DHT22;12897;50.812;4.430;2022-12-18T07:09:39;-3.90;99.90
24800;DHT22;12897;50.812;4.430;2022-12-18T07:12:06;-3.80;99.90
24800;DHT22;12897;50.812;4.430;2022-12-18T07:14:34;-3.70;99.90
24800;DHT22;12897;50.812;4.430;2022-12-18T07:17:02;-3.60;99.90
24800;DHT22;12897;50.812;4.430;2022-12-18T07:19:41;-3.60;99.90
24800;DHT22;12897;50.812;4.430;2022-12-18T07:22:07;-3.60;99.90
24800;DHT22;12897;50.812;4.430;2022-12-18T07:24:35;-3.60;99.90
24800;DHT22;12897;50.812;4.430;2022-12-18T07:27:03;-3.70;99.90
24800;DHT22;12897;50.812;4.430;2022-12-18T07:29:40;-3.80;99.90
24800;DHT22;12897;50.812;4.430;2022-12-18T07:32:07;-3.70;99.90
24800;DHT22;12897;50.812;4.430;2022-12-18T07:34:37;-3.60;99.90
24800;DHT22;12897;50.812;4.430;2022-12-18T07:37:04;-3.40;99.90
24800;DHT22;12897;50.812;4.430;2022-12-18T07:39:32;-3.20;99.90
24800;DHT22;12897;50.812;4.430;2022-12-18T07:42:00;-3.30;99.90
24800;DHT22;12897;50.812;4.430;2022-12-18T07:44:46;-3.30;99.90
24800;DHT22;12897;50.812;4.430;2022-12-18T07:47:13;-3.20;99.90
24800;DHT22;12897;50.812;4.430;2022-12-18T07:49:42;-3.20;99.90
24800;DHT22;12897;50.812;4.430;2022-12-18T07:52:15;-3.20;99.90
24800;DHT22;12897;50.812;4.430;2022-12-18T07:54:41;-3.20;99.90
24800;DHT22;12897;50.812;4.430;2022-12-18T07:57:08;-3.20;99.90
24800;DHT22;12897;50.812;4.430;2022-12-18T07:59:36;-3.10;99.90
24800;DHT22;12897;50.812;4.430;2022-12-18T08:02:04;-2.90;99.90
24800;DHT22;12897;50.812;4.430;2022-12-18T08:04:32;-2.90;99.90
24800;DHT22;12897;50.812;4.430;2022-12-18T08:07:01;-2.90;99.90
24800;DHT22;12897;50.812;4.430;2022-12-18T08:09:29;-2.80;99.90
24800;DHT22;12897;50.812;4.430;2022-12-18T08:12:00;-2.80;99.90
24800;DHT22;12897;50.812;4.430;2022-12-18T08:14:29;-2.70;99.90
24800;DHT22;12897;50.812;4.430;2022-12-18T08:16:56;-2.20;99.90
24800;DHT22;12897;50.812;4.430;2022-12-18T08:19:27;-1.90;99.90
24800;DHT22;12897;50.812;4.430;2022-12-18T08:21:57;-1.60;99.90
24800;DHT22;12897;50.812;4.430;2022-12-18T08:24:26;-1.60;99.90
24800;DHT22;12897;50.812;4.430;2022-12-18T08:26:53;-1.60;99.90
24800;DHT22;12897;50.812;4.430;2022-12-18T08:29:22;-1.60;99.90
24800;DHT22;12897;50.812;4.430;2022-12-18T08:31:51;-1.70;99.90
24800;DHT22;12897;50.812;4.430;2022-12-18T08:34:19;-1.50;99.90
24800;DHT22;12897;50.812;4.430;2022-12-18T08:36:46;-1.60;99.90
24800;DHT22;12897;50.812;4.430;2022-12-18T08:39:14;-1.50;99.90
24800;DHT22;12897;50.812;4.430;2022-12-18T08:41:41;-1.40;99.90
24800;DHT22;12897;50.812;4.430;2022-12-18T08:44:11;-1.30;99.90
24800;DHT22;12897;50.812;4.430;2022-12-18T08:46:56;-1.10;99.90
24800;DHT22;12897;50.812;4.430;2022-12-18T08:49:24;-1.20;99.90
24800;DHT22;12897;50.812;4.430;2022-12-18T08:51:54;-1.10;99.90
24800;DHT22;12897;50.812;4.430;2022-12-18T08:54:24;-1.00;99.90
24800;DHT22;12897;50.812;4.430;2022-12-18T08:56:52;-1.10;99.90
24800;DHT22;12897;50.812;4.430;2022-12-18T08:59:20;-1.10;99.90
24800;DHT22;12897;50.812;4.430;2022-12-18T09:01:47;-1.00;99.90
24800;DHT22;12897;50.812;4.430;2022-12-18T09:04:18;-1.00;99.90
24800;DHT22;12897;50.812;4.430;2022-12-18T09:06:46;-1.00;99.90
24800;DHT22;12897;50.812;4.430;2022-12-18T09:09:15;-0.90;99.90
24800;DHT22;12897;50.812;4.430;2022-12-18T09:11:43;-0.80;99.90
24800;DHT22;12897;50.812;4.430;2022-12-18T09:14:11;-0.80;99.90
24800;DHT22;12897;50.812;4.430;2022-12-18T09:16:40;-0.80;99.90
24800;DHT22;12897;50.812;4.430;2022-12-18T09:19:09;-0.70;99.90
24800;DHT22;12897;50.812;4.430;2022-12-18T09:21:37;-0.60;99.90
24800;DHT22;12897;50.812;4.430;2022-12-18T09:24:11;-0.50;99.90
24800;DHT22;12897;50.812;4.430;2022-12-18T09:26:40;-0.30;99.90
24800;DHT22;12897;50.812;4.430;2022-12-18T09:29:07;-0.20;99.90
24800;DHT22;12897;50.812;4.430;2022-12-18T09:31:38;-0.10;99.90
24800;DHT22;12897;50.812;4.430;2022-12-18T09:34:06;-0.10;99.90
24800;DHT22;12897;50.812;4.430;2022-12-18T09:36:35;-0.20;99.90
24800;DHT22;12897;50.812;4.430;2022-12-18T09:39:04;-0.30;99.90
24800;DHT22;12897;50.812;4.430;2022-12-18T09:41:51;-0.10;99.90
24800;DHT22;12897;50.812;4.430;2022-12-18T09:44:31;0.10;99.90
24800;DHT22;12897;50.812;4.430;2022-12-18T09:47:04;0.40;99.90
24800;DHT22;12897;50.812;4.430;2022-12-18T09:49:34;0.50;99.90
24800;DHT22;12897;50.812;4.430;2022-12-18T09:52:08;0.40;99.90
24800;DHT22;12897;50.812;4.430;2022-12-18T09:54:36;0.50;99.90
24800;DHT22;12897;50.812;4.430;2022-12-18T09:57:05;0.60;99.90
24800;DHT22;12897;50.812;4.430;2022-12-18T09:59:38;0.80;99.90
24800;DHT22;12897;50.812;4.430;2022-12-18T10:02:21;0.80;99.90
24800;DHT22;12897;50.812;4.430;2022-12-18T10:07:36;0.60;99.90
24800;DHT22;12897;50.812;4.430;2022-12-18T10:10:10;0.70;99.90
24800;DHT22;12897;50.812;4.430;2022-12-18T10:12:46;0.80;99.90
24800;DHT22;12897;50.812;4.430;2022-12-18T10:17:57;1.10;99.90
24800;DHT22;12897;50.812;4.430;2022-12-18T10:20:38;0.90;99.90
24800;DHT22;12897;50.812;4.430;2022-12-18T10:23:18;1.00;99.90
24800;DHT22;12897;50.812;4.430;2022-12-18T10:26:10;1.10;99.90
24800;DHT22;12897;50.812;4.430;2022-12-18T10:28:37;1.30;99.90
24800;DHT22;12897;50.812;4.430;2022-12-18T10:31:17;1.20;99.90
24800;DHT22;12897;50.812;4.430;2022-12-18T10:33:45;1.30;99.90
24800;DHT22;12897;50.812;4.430;2022-12-18T10:36:15;1.10;99.90
24800;DHT22;12897;50.812;4.430;2022-12-18T10:38:43;1.20;99.90
24800;DHT22;12897;50.812;4.430;2022-12-18T10:46:50;1.40;99.90
24800;DHT22;12897;50.812;4.430;2022-12-18T10:49:28;1.40;99.90
24800;DHT22;12897;50.812;4.430;2022-12-18T10:54:53;1.90;99.90
24800;DHT22;12897;50.812;4.430;2022-12-18T10:57:37;2.00;99.90
24800;DHT22;12897;50.812;4.430;2022-12-18T11:00:24;2.00;99.90
24800;DHT22;12897;50.812;4.430;2022-12-18T11:02:51;2.00;99.90
24800;DHT22;12897;50.812;4.430;2022-12-18T11:05:30;2.10;99.90
24800;DHT22;12897;50.812;4.430;2022-12-18T11:07:59;2.30;99.90
24800;DHT22;12897;50.812;4.430;2022-12-18T11:10:37;2.20;99.90
24800;DHT22;12897;50.812;4.430;2022-12-18T11:13:18;2.30;99.90
24800;DHT22;12897;50.812;4.430;2022-12-18T11:15:47;2.40;99.90
24800;DHT22;12897;50.812;4.430;2022-12-18T11:18:22;2.60;99.90
24800;DHT22;12897;50.812;4.430;2022-12-18T11:21:09;2.80;99.90
24800;DHT22;12897;50.812;4.430;2022-12-18T11:24:00;2.70;99.90
24800;DHT22;12897;50.812;4.430;2022-12-18T11:26:09;2.80;99.90
24800;DHT22;12897;50.812;4.430;2022-12-18T11:28:44;3.00;99.90
24800;DHT22;12897;50.812;4.430;2022-12-18T11:31:22;2.90;99.90
24800;DHT22;12897;50.812;4.430;2022-12-18T11:36:38;2.50;99.90
24800;DHT22;12897;50.812;4.430;2022-12-18T11:39:40;2.50;99.90
24800;DHT22;12897;50.812;4.430;2022-12-18T11:41:52;2.50;99.90
24800;DHT22;12897;50.812;4.430;2022-12-18T11:44:49;2.80;99.90
24800;DHT22;12897;50.812;4.430;2022-12-18T11:47:41;2.80;99.90
24800;DHT22;12897;50.812;4.430;2022-12-18T11:50:13;2.90;99.90
24800;DHT22;12897;50.812;4.430;2022-12-18T11:52:41;3.00;99.90
24800;DHT22;12897;50.812;4.430;2022-12-18T11:55:19;2.90;99.90
24800;DHT22;12897;50.812;4.430;2022-12-18T11:58:18;2.80;99.90
24800;DHT22;12897;50.812;4.430;2022-12-18T12:00:45;2.80;99.90
24800;DHT22;12897;50.812;4.430;2022-12-18T12:03:27;3.10;99.90
24800;DHT22;12897;50.812;4.430;2022-12-18T12:05:57;3.30;99.90
24800;DHT22;12897;50.812;4.430;2022-12-18T12:11:46;3.50;99.90
24800;DHT22;12897;50.812;4.430;2022-12-18T12:19:48;3.30;99.90
24800;DHT22;12897;50.812;4.430;2022-12-18T12:22:32;3.30;99.90
24800;DHT22;12897;50.812;4.430;2022-12-18T12:25:20;3.20;99.90
24800;DHT22;12897;50.812;4.430;2022-12-18T12:38:23;3.30;99.90
24800;DHT22;12897;50.812;4.430;2022-12-18T12:41:06;3.30;99.90
24800;DHT22;12897;50.812;4.430;2022-12-18T12:43:38;3.40;99.90
24800;DHT22;12897;50.812;4.430;2022-12-18T12:46:09;3.30;99.90
24800;DHT22;12897;50.812;4.430;2022-12-18T12:48:48;3.40;99.90
24800;DHT22;12897;50.812;4.430;2022-12-18T12:51:19;3.50;99.90
24800;DHT22;12897;50.812;4.430;2022-12-18T12:53:47;3.60;99.90
24800;DHT22;12897;50.812;4.430;2022-12-18T12:56:17;3.60;99.90
24800;DHT22;12897;50.812;4.430;2022-12-18T12:58:59;3.50;99.90
24800;DHT22;12897;50.812;4.430;2022-12-18T13:01:36;3.50;99.90
24800;DHT22;12897;50.812;4.430;2022-12-18T13:04:15;3.50;99.90
24800;DHT22;12897;50.812;4.430;2022-12-18T13:09:32;3.20;99.90
24800;DHT22;12897;50.812;4.430;2022-12-18T13:12:07;3.10;99.90
24800;DHT22;12897;50.812;4.430;2022-12-18T13:14:50;3.10;99.90
24800;DHT22;12897;50.812;4.430;2022-12-18T13:20:05;3.30;99.90
24800;DHT22;12897;50.812;4.430;2022-12-18T13:22:44;3.40;99.90
24800;DHT22;12897;50.812;4.430;2022-12-18T13:25:35;3.40;99.90
24800;DHT22;12897;50.812;4.430;2022-12-18T13:30:58;3.60;99.90
24800;DHT22;12897;50.812;4.430;2022-12-18T13:33:35;3.60;99.90
24800;DHT22;12897;50.812;4.430;2022-12-18T13:38:46;3.70;99.90
24800;DHT22;12897;50.812;4.430;2022-12-18T13:41:25;3.70;99.90
24800;DHT22;12897;50.812;4.430;2022-12-18T13:44:10;3.50;99.90
24800;DHT22;12897;50.812;4.430;2022-12-18T13:51:53;3.00;99.90
24800;DHT22;12897;50.812;4.430;2022-12-18T13:56:52;2.70;99.90
24800;DHT22;12897;50.812;4.430;2022-12-18T13:59:25;2.70;99.90
24800;DHT22;12897;50.812;4.430;2022-12-18T14:02:01;3.00;99.90
24800;DHT22;12897;50.812;4.430;2022-12-18T14:04:29;3.00;99.90
24800;DHT22;12897;50.812;4.430;2022-12-18T14:07:18;2.80;99.90
24800;DHT22;12897;50.812;4.430;2022-12-18T14:10:01;3.00;99.90
24800;DHT22;12897;50.812;4.430;2022-12-18T14:12:31;3.10;99.90
24800;DHT22;12897;50.812;4.430;2022-12-18T14:18:03;2.80;99.90
24800;DHT22;12897;50.812;4.430;2022-12-18T14:20:34;2.70;99.90
24800;DHT22;12897;50.812;4.430;2022-12-18T14:23:02;2.70;99.90
24800;DHT22;12897;50.812;4.430;2022-12-18T14:25:33;2.60;99.90
24800;DHT22;12897;50.812;4.430;2022-12-18T14:28:13;2.80;99.90
24800;DHT22;12897;50.812;4.430;2022-12-18T14:30:45;2.80;99.90
24800;DHT22;12897;50.812;4.430;2022-12-18T14:36:04;2.60;99.90
24800;DHT22;12897;50.812;4.430;2022-12-18T14:38:39;2.70;99.90
24800;DHT22;12897;50.812;4.430;2022-12-18T14:43:33;3.00;99.90
24800;DHT22;12897;50.812;4.430;2022-12-18T14:46:01;3.10;99.90
24800;DHT22;12897;50.812;4.430;2022-12-18T14:48:41;2.90;99.90
24800;DHT22;12897;50.812;4.430;2022-12-18T14:51:20;3.00;99.90
24800;DHT22;12897;50.812;4.430;2022-12-18T14:53:53;2.90;99.90
24800;DHT22;12897;50.812;4.430;2022-12-18T14:56:23;2.80;99.90
24800;DHT22;12897;50.812;4.430;2022-12-18T14:59:13;2.70;99.90
24800;DHT22;12897;50.812;4.430;2022-12-18T15:01:33;2.60;99.90
24800;DHT22;12897;50.812;4.430;2022-12-18T15:04:03;2.40;99.90
24800;DHT22;12897;50.812;4.430;2022-12-18T15:06:35;2.20;99.90
24800;DHT22;12897;50.812;4.430;2022-12-18T15:09:20;2.10;99.90
24800;DHT22;12897;50.812;4.430;2022-12-18T15:14:31;2.30;99.90
24800;DHT22;12897;50.812;4.430;2022-12-18T15:17:01;2.40;99.90
24800;DHT22;12897;50.812;4.430;2022-12-18T15:19:40;2.50;99.90
24800;DHT22;12897;50.812;4.430;2022-12-18T15:22:20;2.60;99.90
24800;DHT22;12897;50.812;4.430;2022-12-18T15:24:48;2.60;99.90
24800;DHT22;12897;50.812;4.430;2022-12-18T15:27:31;2.40;99.90
24800;DHT22;12897;50.812;4.430;2022-12-18T15:30:18;2.50;99.90
24800;DHT22;12897;50.812;4.430;2022-12-18T15:32:47;2.40;99.90
24800;DHT22;12897;50.812;4.430;2022-12-18T15:35:26;2.40;99.90
24800;DHT22;12897;50.812;4.430;2022-12-18T15:37:54;2.40;99.90
24800;DHT22;12897;50.812;4.430;2022-12-18T15:40:23;2.40;99.90
24800;DHT22;12897;50.812;4.430;2022-12-18T15:42:53;2.50;99.90
24800;DHT22;12897;50.812;4.430;2022-12-18T15:45:39;2.50;99.90
24800;DHT22;12897;50.812;4.430;2022-12-18T15:48:20;2.50;99.90
24800;DHT22;12897;50.812;4.430;2022-12-18T15:50:43;2.60;99.90
24800;DHT22;12897;50.812;4.430;2022-12-18T15:53:11;2.40;99.90
24800;DHT22;12897;50.812;4.430;2022-12-18T15:55:39;2.40;99.90
24800;DHT22;12897;50.812;4.430;2022-12-18T15:58:26;2.40;99.90
24800;DHT22;12897;50.812;4.430;2022-12-18T16:00:55;2.30;99.90
24800;DHT22;12897;50.812;4.430;2022-12-18T16:03:26;2.30;99.90
24800;DHT22;12897;50.812;4.430;2022-12-18T16:05:53;2.30;99.90
24800;DHT22;12897;50.812;4.430;2022-12-18T16:08:21;2.30;99.90
24800;DHT22;12897;50.812;4.430;2022-12-18T16:10:49;2.40;99.90
24800;DHT22;12897;50.812;4.430;2022-12-18T16:13:19;2.40;99.90
24800;DHT22;12897;50.812;4.430;2022-12-18T16:15:48;2.50;99.90
24800;DHT22;12897;50.812;4.430;2022-12-18T16:18:15;2.50;99.90
24800;DHT22;12897;50.812;4.430;2022-12-18T16:20:45;2.40;99.90
24800;DHT22;12897;50.812;4.430;2022-12-18T16:23:12;2.30;99.90
24800;DHT22;12897;50.812;4.430;2022-12-18T16:25:40;2.40;99.90
24800;DHT22;12897;50.812;4.430;2022-12-18T16:28:07;2.40;99.90
24800;DHT22;12897;50.812;4.430;2022-12-18T16:30:36;2.60;99.90
24800;DHT22;12897;50.812;4.430;2022-12-18T16:33:04;2.70;99.90
24800;DHT22;12897;50.812;4.430;2022-12-18T16:35:32;2.60;99.90
24800;DHT22;12897;50.812;4.430;2022-12-18T16:38:00;2.60;99.90
24800;DHT22;12897;50.812;4.430;2022-12-18T16:40:30;2.50;99.90
24800;DHT22;12897;50.812;4.430;2022-12-18T16:43:02;2.60;99.90
24800;DHT22;12897;50.812;4.430;2022-12-18T16:45:31;2.80;99.90
24800;DHT22;12897;50.812;4.430;2022-12-18T16:47:59;2.80;99.90
24800;DHT22;12897;50.812;4.430;2022-12-18T16:50:27;2.90;99.90
24800;DHT22;12897;50.812;4.430;2022-12-18T16:52:54;3.00;99.90
24800;DHT22;12897;50.812;4.430;2022-12-18T16:55:22;3.00;99.90
24800;DHT22;12897;50.812;4.430;2022-12-18T16:57:51;2.90;99.90
24800;DHT22;12897;50.812;4.430;2022-12-18T17:00:18;2.80;99.90
24800;DHT22;12897;50.812;4.430;2022-12-18T17:02:46;3.00;99.90
24800;DHT22;12897;50.812;4.430;2022-12-18T17:05:14;3.00;99.90
24800;DHT22;12897;50.812;4.430;2022-12-18T17:07:43;2.90;99.90
24800;DHT22;12897;50.812;4.430;2022-12-18T17:10:10;2.80;99.90
24800;DHT22;12897;50.812;4.430;2022-12-18T17:12:38;2.80;99.90
24800;DHT22;12897;50.812;4.430;2022-12-18T17:15:07;3.00;99.90
24800;DHT22;12897;50.812;4.430;2022-12-18T17:17:37;3.10;99.90
24800;DHT22;12897;50.812;4.430;2022-12-18T17:20:07;2.90;99.90
24800;DHT22;12897;50.812;4.430;2022-12-18T17:22:35;2.90;99.90
24800;DHT22;12897;50.812;4.430;2022-12-18T17:25:03;2.80;99.90
24800;DHT22;12897;50.812;4.430;2022-12-18T17:27:33;2.80;99.90
24800;DHT22;12897;50.812;4.430;2022-12-18T17:30:04;3.00;99.90